Time;durP1;ratioP1;P1;durP2;ratioP2;P2;SDS_P1;SDS_P2;PMS_P1;PMS_P2;Temp;Humidity;BMP_temperature;BMP_pressure;BME280_temperature;BME280_humidity;BME280_pressure;Samples;Min_cycle;Max_cycle;Signal;HPM_P1;HPM_P2
2021/06/13 00:01:28;;;;;;;4.45;4.05;;;;;;;20.20;67.80;100607.28;5047326;27;102598;-66
2021/06/13 00:03:55;;;;;;;4.20;3.88;;;;;;;20.20;67.83;100607.28;5051333;27;102634;-66
2021/06/13 00:06:21;;;;;;;4.35;3.95;;;;;;;20.20;67.89;100599.00;5050097;27;103855;-66
2021/06/13 00:08:48;;;;;;;4.82;4.10;;;;;;;20.19;67.70;100605.63;5049707;27;102519;-67
2021/06/13 00:11:17;;;;;;;5.40;4.13;;;;;;;20.20;67.60;100595.41;5047987;27;102642;-66
2021/06/13 00:13:44;;;;;;;4.78;4.30;;;;;;;20.19;67.44;100600.13;5049063;27;102265;-67
2021/06/13 00:16:11;;;;;;;4.40;4.00;;;;;;;20.18;67.43;100598.50;5040998;27;104248;-67
2021/06/13 00:18:38;;;;;;;3.70;3.38;;;;;;;20.18;67.75;100587.47;5047156;27;103258;-67
2021/06/13 00:21:04;;;;;;;5.22;4.57;;;;;;;20.19;67.48;100586.31;5047367;27;102641;-67
2021/06/13 00:23:31;;;;;;;4.32;3.92;;;;;;;20.18;67.82;100576.41;5051374;27;102489;-67
2021/06/13 00:25:58;;;;;;;3.55;3.25;;;;;;;20.17;67.62;100574.78;5050030;27;103707;-67
2021/06/13 00:28:26;;;;;;;4.38;3.97;;;;;;;20.17;67.60;100572.84;5048661;27;102050;-67
2021/06/13 00:30:52;;;;;;;4.05;3.67;;;;;;;20.18;67.92;100570.88;5049103;27;102503;-67
2021/06/13 00:33:19;;;;;;;4.22;3.60;;;;;;;20.17;67.74;100566.50;5046571;27;102666;-67
2021/06/13 00:35:45;;;;;;;4.35;3.92;;;;;;;20.18;67.52;100573.63;5049743;27;103854;-68
2021/06/13 00:38:13;;;;;;;5.15;3.55;;;;;;;20.17;67.82;100569.28;5048824;27;102230;-68
2021/06/13 00:40:39;;;;;;;4.22;3.42;;;;;;;20.17;67.88;100566.50;5049422;27;102473;-66
2021/06/13 00:43:05;;;;;;;3.65;3.35;;;;;;;20.17;67.90;100563.75;5047588;27;102671;-67
2021/06/13 00:45:33;;;;;;;3.70;3.35;;;;;;;20.15;67.57;100554.97;5049507;27;104170;-66
2021/06/13 00:48:00;;;;;;;3.53;3.22;;;;;;;20.15;67.73;100561.31;5043042;27;102069;-67
2021/06/13 00:50:30;;;;;;;4.28;3.90;;;;;;;20.16;67.47;100562.94;5049455;27;103125;-66
2021/06/13 00:52:59;;;;;;;3.63;3.33;;;;;;;20.16;67.67;100562.94;5047204;27;102138;-66
2021/06/13 00:55:26;;;;;;;3.87;3.57;;;;;;;20.15;67.64;100555.78;5041710;27;104030;-66
2021/06/13 00:57:53;;;;;;;3.88;3.50;;;;;;;20.16;67.69;100560.19;5048614;27;102236;-67
2021/06/13 01:00:22;;;;;;;4.13;3.78;;;;;;;20.15;67.83;100555.78;5048860;27;102350;-67
2021/06/13 01:02:50;;;;;;;;;;;;;;;20.15;67.63;100560.50;5047380;27;102449;-66
2021/06/13 01:05:16;;;;;;;4.18;3.13;;;;;;;20.14;67.50;100562.47;5046197;27;103899;-67
2021/06/13 01:07:51;;;;;;;3.60;3.30;;;;;;;20.15;67.88;100566.03;5049890;27;102424;-67
2021/06/13 01:10:30;;;;;;;5.28;3.40;;;;;;;20.15;67.85;100568.78;5047980;27;102327;-67
2021/06/13 01:13:01;;;;;;;3.50;3.20;;;;;;;20.16;67.63;100567.66;5046912;27;102791;-66
2021/06/13 01:15:34;;;;;;;3.58;3.17;;;;;;;20.15;67.61;100566.03;5043970;27;104038;-66
2021/06/13 01:18:06;;;;;;;3.85;3.47;;;;;;;20.15;67.52;100566.03;5044058;27;106676;-67
2021/06/13 01:20:37;;;;;;;4.40;3.47;;;;;;;20.12;67.63;100553.72;5042631;27;102851;-66
2021/06/13 01:23:24;;;;;;;4.05;3.50;;;;;;;20.13;67.89;100557.28;5047495;27;102584;-66
2021/06/13 01:26:28;;;;;;;3.55;3.30;;;;;;;20.12;67.45;100552.88;5042262;27;103943;-66
2021/06/13 01:28:58;;;;;;;3.85;2.83;;;;;;;20.11;67.41;100554.03;5026724;27;102611;-66
2021/06/13 01:31:28;;;;;;;4.28;3.40;;;;;;;20.12;67.71;100550.13;5049257;27;102339;-67
2021/06/13 01:33:58;;;;;;;3.42;3.13;;;;;;;20.12;67.73;100550.13;5042902;27;102206;-66
2021/06/13 01:36:25;;;;;;;3.97;3.17;;;;;;;20.12;67.55;100539.91;5041943;27;104017;-66
2021/06/13 01:38:54;;;;;;;3.60;3.30;;;;;;;20.13;67.41;100549.00;5048413;27;102512;-66
2021/06/13 01:41:25;;;;;;;3.40;2.95;;;;;;;20.11;67.46;100543.78;5053065;27;102581;-66
2021/06/13 01:43:54;;;;;;;4.18;3.35;;;;;;;20.11;67.74;100541.03;5049506;27;102411;-66
2021/06/13 01:46:24;;;;;;;;;;;;;;;20.12;67.63;100539.06;5037520;27;103486;-66
2021/06/13 01:48:51;;;;;;;3.20;2.90;;;;;;;20.11;67.77;100537.47;5040438;27;102322;-67
2021/06/13 01:51:19;;;;;;;3.47;3.17;;;;;;;20.11;67.67;100537.47;5049044;27;102278;-66
2021/06/13 01:53:46;;;;;;;4.03;3.40;;;;;;;20.10;67.53;100530.34;5063295;27;102521;-67
2021/06/13 01:56:15;;;;;;;3.72;3.20;;;;;;;20.11;67.75;100526.41;5046134;27;103957;-66
2021/06/13 01:58:46;;;;;;;3.65;3.20;;;;;;;20.10;67.57;100530.34;5048560;27;102516;-66
2021/06/13 02:01:16;;;;;;;3.28;2.97;;;;;;;20.09;67.84;100528.72;5037489;27;103419;-66
2021/06/13 02:03:47;;;;;;;4.60;3.17;;;;;;;20.11;67.72;100526.41;5045071;27;102684;-66
2021/06/13 02:06:15;;;;;;;3.33;3.03;;;;;;;20.10;67.55;100524.81;5043777;27;103907;-66
2021/06/13 02:08:45;;;;;;;4.47;3.65;;;;;;;20.10;67.83;100530.34;5045579;27;102615;-66
2021/06/13 02:11:13;;;;;;;2.92;2.72;;;;;;;20.09;67.74;100524.00;5046101;27;102547;-66
2021/06/13 02:13:44;;;;;;;3.58;3.13;;;;;;;20.10;67.75;100524.81;5045449;27;102613;-67
2021/06/13 02:16:12;;;;;;;5.13;3.33;;;;;;;20.09;67.75;100518.47;5047111;27;103871;-66
2021/06/13 02:18:45;;;;;;;3.38;3.17;;;;;;;20.09;67.81;100517.69;5042223;27;102124;-66
2021/06/13 02:21:13;;;;;;;5.93;3.00;;;;;;;20.08;67.49;100516.03;5038218;27;102679;-66
2021/06/13 02:23:41;;;;;;;47.22;5.40;;;;;;;20.09;67.65;100512.16;5046010;27;102316;-66
2021/06/13 02:26:09;;;;;;;4.13;3.20;;;;;;;20.10;67.79;100519.28;5046743;27;104052;-66
2021/06/13 02:28:41;;;;;;;3.63;3.08;;;;;;;20.09;67.54;100523.22;5044234;27;102640;-67
2021/06/13 02:31:09;;;;;;;3.40;3.10;;;;;;;20.10;67.66;100516.53;5045043;27;102235;-67
2021/06/13 02:33:40;;;;;;;3.22;2.92;;;;;;;20.09;67.38;100521.25;5040986;27;102597;-67
2021/06/13 02:36:09;;;;;;;3.63;3.33;;;;;;;20.09;67.50;100517.69;5044001;27;103955;-66
2021/06/13 02:38:36;;;;;;;4.53;3.00;;;;;;;20.09;67.69;100512.16;5046407;27;102647;-66
2021/06/13 02:41:03;;;;;;;4.70;3.15;;;;;;;20.09;67.78;100520.44;5044805;27;102256;-66
2021/06/13 02:43:29;;;;;;;3.85;3.20;;;;;;;20.09;67.76;100509.41;5043908;27;102543;-66
2021/06/13 02:45:56;;;;;;;5.30;3.70;;;;;;;20.09;67.73;100506.63;5048245;27;103859;-66
2021/06/13 02:48:24;;;;;;;5.28;3.85;;;;;;;20.09;67.58;100512.16;5048033;27;102210;-66
2021/06/13 02:50:51;;;;;;;5.03;3.80;;;;;;;20.08;67.61;100510.53;5039821;27;102572;-67
2021/06/13 02:53:26;;;;;;;4.93;3.80;;;;;;;20.09;67.66;100517.69;5045870;27;102353;-66
2021/06/13 02:55:56;;;;;;;5.15;3.58;;;;;;;20.09;67.60;100512.16;5045465;27;103843;-66
2021/06/13 02:58:33;;;;;;;5.35;3.78;;;;;;;20.10;67.85;100513.75;5047012;27;102172;-67
2021/06/13 03:01:00;;;;;;;5.43;3.42;;;;;;;20.09;67.79;100506.63;5039533;27;102428;-66
2021/06/13 03:03:28;;;;;;;6.13;3.55;;;;;;;20.09;67.70;100514.91;5047073;27;102254;-67
2021/06/13 03:05:56;;;;;;;4.22;2.90;;;;;;;20.07;68.09;100508.91;5046781;27;103967;-66
2021/06/13 03:08:43;;;;;;;4.15;3.20;;;;;;;20.08;67.74;100510.53;5047898;27;102774;-67
2021/06/13 03:11:11;;;;;;;;;;;;;;;20.08;68.01;100505.00;5046831;27;102485;-67
2021/06/13 03:13:40;;;;;;;3.30;3.00;;;;;;;20.06;68.15;100513.63;5043962;27;102166;-67
2021/06/13 03:16:07;;;;;;;3.70;3.22;;;;;;;20.08;68.08;100511.31;5044714;27;103880;-67
2021/06/13 03:18:36;;;;;;;3.58;3.28;;;;;;;20.09;67.87;100506.63;5042712;27;102031;-67
2021/06/13 03:21:05;;;;;;;3.30;2.95;;;;;;;20.09;68.15;100512.16;5045496;27;102386;-67
2021/06/13 03:23:33;;;;;;;3.63;3.00;;;;;;;20.09;68.09;100496.38;5046280;27;102250;-66
2021/06/13 03:26:02;;;;;;;4.30;3.10;;;;;;;20.10;67.98;100502.72;5047781;27;103743;-67
2021/06/13 03:28:31;;;;;;;3.78;3.42;;;;;;;20.09;68.09;100495.56;5046656;27;102473;-67
2021/06/13 03:30:58;;;;;;;3.30;3.10;;;;;;;20.09;67.99;100495.56;5047335;27;102348;-66
2021/06/13 03:33:27;;;;;;;3.22;2.92;;;;;;;20.10;67.92;100491.66;5046365;27;102915;-66
2021/06/13 03:35:55;;;;;;;3.53;2.97;;;;;;;20.09;68.09;100485.34;5046296;27;104216;-67
2021/06/13 03:38:23;;;;;;;3.55;3.20;;;;;;;20.10;68.16;100491.66;5046767;27;102554;-67
2021/06/13 03:40:51;;;;;;;3.45;3.13;;;;;;;20.10;68.29;100491.66;5043878;27;102116;-67
2021/06/13 03:43:21;;;;;;;3.00;2.70;;;;;;;20.09;68.14;100481.75;5041777;27;102437;-67
2021/06/13 03:45:48;;;;;;;3.40;3.10;;;;;;;20.11;68.37;100480.25;5047317;27;103921;-67
2021/06/13 03:48:17;;;;;;;3.75;2.63;;;;;;;20.11;68.14;100482.22;5042336;27;102698;-67
2021/06/13 03:50:45;;;;;;;4.00;2.63;;;;;;;20.11;68.00;100477.50;5043020;27;102416;-67
2021/06/13 03:53:12;;;;;;;3.15;2.80;;;;;;;20.11;67.94;100479.44;5044830;27;102392;-67
2021/06/13 03:55:40;;;;;;;3.67;3.15;;;;;;;20.11;68.27;100476.69;5046225;27;103817;-67
2021/06/13 03:58:08;;;;;;;4.93;2.70;;;;;;;20.12;68.03;100470.84;5047425;27;102115;-67
2021/06/13 04:00:39;;;;;;;2.95;2.75;;;;;;;20.11;68.27;100466.44;5046092;27;102419;-67
2021/06/13 04:03:07;;;;;;;2.78;2.58;;;;;;;20.12;68.15;100464.47;5044904;27;102174;-67
2021/06/13 04:05:34;;;;;;;3.28;2.70;;;;;;;20.12;68.15;100468.06;5045638;27;104066;-67
2021/06/13 04:08:01;;;;;;;2.88;2.55;;;;;;;20.13;68.35;100463.34;5043620;27;102776;-67
2021/06/13 04:10:30;;;;;;;3.28;2.97;;;;;;;20.15;68.06;100481.19;5045584;27;102653;-67
2021/06/13 04:12:57;;;;;;;;;;;;;;;20.16;68.08;100473.72;5046699;27;102428;-67
2021/06/13 04:15:25;;;;;;;3.30;3.00;;;;;;;20.16;68.16;100473.72;5042577;27;102984;-67
2021/06/13 04:17:54;;;;;;;3.43;2.97;;;;;;;20.16;68.24;100482.00;5045387;27;102672;-66
2021/06/13 04:20:21;;;;;;;3.47;2.75;;;;;;;20.16;68.11;100473.72;5047201;27;102746;-67
2021/06/13 04:22:48;;;;;;;2.60;2.40;;;;;;;20.16;68.06;100477.28;5046158;27;102829;-67
2021/06/13 04:25:17;;;;;;;3.35;3.05;;;;;;;20.16;68.24;100473.72;5040418;27;103888;-66
2021/06/13 04:27:47;;;;;;;3.75;2.63;;;;;;;20.17;67.93;100486.38;5044462;27;102422;-67
2021/06/13 04:30:14;;;;;;;3.10;2.80;;;;;;;20.18;68.08;100471.41;5050461;27;102596;-67
2021/06/13 04:32:41;;;;;;;2.70;2.50;;;;;;;20.16;68.29;100468.19;5044809;27;102791;-67
2021/06/13 04:35:11;;;;;;;4.38;2.53;;;;;;;20.17;68.25;100470.59;5043105;27;103375;-66
2021/06/13 04:37:37;;;;;;;2.70;2.50;;;;;;;20.18;68.23;100465.88;5048050;27;102523;-67
2021/06/13 04:40:05;;;;;;;3.15;2.95;;;;;;;20.19;68.06;100475.78;5049687;27;102213;-67
2021/06/13 04:42:31;;;;;;;3.08;2.78;;;;;;;20.19;68.14;100477.75;5050127;27;102607;-67
2021/06/13 04:44:58;;;;;;;4.88;2.92;;;;;;;20.19;68.26;100481.31;5044323;27;103852;-67
2021/06/13 04:47:24;;;;;;;3.53;2.70;;;;;;;20.20;67.99;100480.19;5047641;27;105432;-66
2021/06/13 04:49:55;;;;;;;3.00;2.80;;;;;;;20.21;68.02;100479.03;5050899;27;102161;-67
2021/06/13 04:52:26;;;;;;;3.20;2.90;;;;;;;20.21;68.10;100476.25;5050941;27;102140;-66
2021/06/13 04:55:10;;;;;;;3.05;2.65;;;;;;;20.21;68.32;100476.25;5049217;27;103881;-67
2021/06/13 04:58:11;;;;;;;2.80;2.60;;;;;;;20.22;67.78;100475.09;5045874;27;102868;-66
2021/06/13 05:00:37;;;;;;;2.85;2.65;;;;;;;20.24;67.97;100469.25;5036293;27;102532;-67
2021/06/13 05:03:05;;;;;;;2.75;2.55;;;;;;;20.24;67.86;100474.78;5048449;27;102255;-67
2021/06/13 05:05:33;;;;;;;2.90;2.65;;;;;;;20.25;67.94;100463.38;5049231;27;103969;-66
2021/06/13 05:08:02;;;;;;;2.72;2.53;;;;;;;20.26;67.92;100462.22;5045202;27;102574;-67
2021/06/13 05:10:28;;;;;;;3.17;2.67;;;;;;;20.27;67.63;100458.31;5040881;27;102355;-66
2021/06/13 05:12:55;;;;;;;2.75;2.38;;;;;;;20.27;67.60;100461.09;5050338;27;102295;-67
2021/06/13 05:15:22;;;;;;;2.90;2.70;;;;;;;20.30;67.79;100457.63;5048776;27;104214;-66
2021/06/13 05:17:49;;;;;;;3.58;2.63;;;;;;;20.31;67.62;100459.25;5042394;27;103386;-67
2021/06/13 05:20:17;;;;;;;2.88;2.58;;;;;;;20.33;67.55;100456.91;5043218;27;102694;-66
2021/06/13 05:22:57;;;;;;;2.45;2.20;;;;;;;20.34;67.24;100464.09;5061161;27;102617;-67
2021/06/13 05:25:29;;;;;;;2.60;2.40;;;;;;;20.36;67.59;100456.25;5048786;27;103842;-66
2021/06/13 05:27:56;;;;;;;2.75;2.40;;;;;;;20.37;67.51;100457.03;5042828;27;102658;-67
2021/06/13 05:30:24;;;;;;;2.90;2.70;;;;;;;20.38;67.49;100467.78;5047024;27;102556;-67
2021/06/13 05:32:51;;;;;;;2.70;2.50;;;;;;;20.39;67.42;100472.13;5047501;27;102867;-67
2021/06/13 05:35:17;;;;;;;2.78;2.58;;;;;;;20.42;67.60;100464.31;5046847;27;103412;-67
2021/06/13 05:37:44;;;;;;;2.67;2.25;;;;;;;20.42;67.45;100461.56;5048799;27;102355;-67
2021/06/13 05:40:13;;;;;;;2.70;2.50;;;;;;;20.43;67.28;100461.19;5049298;27;103438;-67
2021/06/13 05:42:41;;;;;;;2.70;2.50;;;;;;;20.45;67.44;100463.59;5050294;27;102739;-67
2021/06/13 05:45:11;;;;;;;2.72;2.53;;;;;;;20.47;67.33;100458.56;5043418;27;104064;-67
2021/06/13 05:47:38;;;;;;;3.28;2.97;;;;;;;20.49;67.22;100465.38;5047159;27;103082;-67
2021/06/13 05:50:07;;;;;;;2.65;2.45;;;;;;;20.50;67.36;100461.47;5045435;27;102462;-67
2021/06/13 05:52:33;;;;;;;;;;;;;;;20.52;67.35;100461.94;5050757;27;102573;-67
2021/06/13 05:54:59;;;;;;;3.15;2.72;;;;;;;20.54;67.22;100458.81;5046403;27;103765;-67
2021/06/13 05:57:31;;;;;;;2.50;2.30;;;;;;;20.55;67.29;100446.59;5034897;27;102337;-67
2021/06/13 06:00:00;;;;;;;2.85;2.65;;;;;;;20.56;67.09;100451.00;5034967;27;102091;-68
2021/06/13 06:02:27;;;;;;;2.65;2.45;;;;;;;20.58;67.09;100462.50;5049747;27;102584;-67
2021/06/13 06:04:53;;;;;;;2.92;2.70;;;;;;;20.59;67.15;100458.59;5046016;22;103872;-61
2021/06/13 06:07:20;;;;;;;2.75;2.55;;;;;;;20.59;67.16;100450.28;5006982;28;102027;-59
2021/06/13 06:09:47;;;;;;;2.60;2.40;;;;;;;20.61;67.03;100453.53;5007363;28;102571;-59
2021/06/13 06:12:15;;;;;;;2.78;2.30;;;;;;;20.61;67.03;100445.22;5009671;28;102689;-59
2021/06/13 06:14:43;;;;;;;2.40;2.20;;;;;;;20.63;67.05;100454.00;5007442;28;103964;-59
2021/06/13 06:17:11;;;;;;;2.70;2.50;;;;;;;20.64;67.02;100450.06;5007275;28;102066;-59
2021/06/13 06:19:38;;;;;;;2.85;2.65;;;;;;;20.67;67.16;100454.91;5001847;28;102552;-59
2021/06/13 06:22:05;;;;;;;2.65;2.45;;;;;;;20.69;67.24;100449.84;5005181;28;102188;-58
2021/06/13 06:24:32;;;;;;;2.53;2.33;;;;;;;20.71;66.80;100447.53;5003783;28;102689;-58
2021/06/13 06:26:58;;;;;;;3.15;2.13;;;;;;;20.72;66.68;100442.81;5003021;28;102922;-59
2021/06/13 06:29:25;;;;;;;2.40;2.30;;;;;;;20.74;66.83;100438.56;5007262;28;102142;-60
2021/06/13 06:31:53;;;;;;;2.88;2.20;;;;;;;20.76;66.91;100440.97;5007330;28;102652;-59
2021/06/13 06:34:21;;;;;;;2.55;2.35;;;;;;;20.76;66.77;100422.41;4994235;28;103710;-60
2021/06/13 06:36:47;;;;;;;2.75;2.55;;;;;;;20.77;66.84;100421.28;5005165;28;102524;-60
2021/06/13 06:39:15;;;;;;;2.65;2.45;;;;;;;20.78;66.79;100411.00;5006997;28;102255;-59
2021/06/13 06:41:42;;;;;;;2.15;2.05;;;;;;;20.79;66.56;100418.16;5003882;28;102173;-60
2021/06/13 06:44:09;;;;;;;2.80;2.60;;;;;;;20.79;66.73;100418.94;5006882;28;104049;-60
2021/06/13 06:46:37;;;;;;;2.00;1.85;;;;;;;20.83;66.82;100419.88;4993291;28;102216;-59
2021/06/13 06:49:04;;;;;;;3.53;2.58;;;;;;;20.81;66.45;100416.66;5008063;28;102504;-59
2021/06/13 06:51:32;;;;;;;3.08;2.25;;;;;;;20.82;66.47;100418.25;5008400;28;102545;-58
2021/06/13 06:53:59;;;;;;;2.47;2.28;;;;;;;20.82;66.51;100412.72;5004374;28;103817;-60
2021/06/13 06:56:26;;;;;;;2.10;1.90;;;;;;;20.82;66.67;100407.19;4988653;28;102282;-60
2021/06/13 06:58:53;;;;;;;2.30;2.10;;;;;;;20.83;66.40;100411.56;4983443;28;103212;-60
2021/06/13 07:01:20;;;;;;;2.63;2.42;;;;;;;20.84;66.40;100404.91;4989139;28;102205;-61
2021/06/13 07:03:46;;;;;;;2.22;2.10;;;;;;;20.84;66.51;100404.91;4989852;28;104164;-59
2021/06/13 07:06:13;;;;;;;2.90;2.70;;;;;;;20.85;66.57;100412.03;4986423;28;102487;-60
2021/06/13 07:08:41;;;;;;;2.40;2.20;;;;;;;20.84;66.55;100413.19;4990019;28;102775;-59
2021/06/13 07:11:07;;;;;;;2.80;2.60;;;;;;;20.86;66.38;100408.09;4988798;28;102757;-60
2021/06/13 07:13:34;;;;;;;1.95;1.85;;;;;;;20.86;66.61;100413.66;4988731;28;103972;-60
2021/06/13 07:16:01;;;;;;;2.33;2.13;;;;;;;20.85;66.64;100412.03;4983097;28;102617;-60
2021/06/13 07:18:27;;;;;;;3.45;2.47;;;;;;;20.86;66.51;100412.84;4986474;28;102400;-60
2021/06/13 07:20:54;;;;;;;2.40;2.20;;;;;;;20.87;66.56;100414.44;4978840;28;102532;-60
2021/06/13 07:23:21;;;;;;;2.58;2.38;;;;;;;20.87;66.82;100409.72;4977581;28;103872;-61
2021/06/13 07:25:49;;;;;;;2.50;2.30;;;;;;;20.87;66.35;100409.72;4987692;28;102518;-59
2021/06/13 07:28:16;;;;;;;2.53;2.33;;;;;;;20.88;66.56;100402.25;4987890;28;102366;-60
2021/06/13 07:30:44;;;;;;;2.53;2.33;;;;;;;20.88;66.20;100405.81;4987640;28;102434;-60
2021/06/13 07:33:10;;;;;;;2.42;2.30;;;;;;;20.91;69.20;100819.25;4984731;28;104049;-60
2021/06/13 07:35:37;;;;;;;2.50;2.30;;;;;;;20.92;66.28;100405.13;4981835;28;102023;-60
2021/06/13 07:38:04;;;;;;;3.35;2.83;;;;;;;20.91;66.26;100404.28;4986805;28;102523;-60
2021/06/13 07:40:31;;;;;;;6.35;2.47;;;;;;;20.90;66.47;100411.00;4984723;28;102417;-60
2021/06/13 07:43:00;;;;;;;2.72;2.33;;;;;;;20.90;66.37;100402.69;4985924;28;103887;-60
2021/06/13 07:45:28;;;;;;;2.72;2.53;;;;;;;20.91;66.53;100397.97;4987047;28;102092;-59
2021/06/13 07:47:54;;;;;;;2.70;2.50;;;;;;;20.91;66.40;100403.50;5000993;28;102500;-60
2021/06/13 07:50:21;;;;;;;2.88;2.35;;;;;;;20.91;66.26;100395.19;4979313;28;102725;-60
2021/06/13 07:52:49;;;;;;;2.65;2.45;;;;;;;20.90;66.38;100393.59;4975175;28;103945;-60
2021/06/13 07:55:18;;;;;;;2.80;2.60;;;;;;;20.91;66.24;100404.28;4984072;28;102312;-60
2021/06/13 07:57:45;;;;;;;2.67;2.47;;;;;;;20.90;66.31;100397.16;4983618;28;102435;-59
2021/06/13 08:00:15;;;;;;;2.75;2.55;;;;;;;20.90;66.32;100396.34;4983934;28;102318;-60
2021/06/13 08:02:42;;;;;;;2.95;2.72;;;;;;;20.91;66.00;100393.22;4986353;28;104648;-60
2021/06/13 08:05:11;;;;;;;2.72;2.53;;;;;;;20.92;66.36;100394.06;4992798;28;102584;-60
2021/06/13 08:07:38;;;;;;;3.03;2.83;;;;;;;20.93;66.31;100395.66;4988599;28;102347;-60
2021/06/13 08:10:25;;;;;;;3.05;2.72;;;;;;;20.91;66.37;100382.16;4987174;28;102743;-60
2021/06/13 08:12:51;;;;;;;3.22;2.92;;;;;;;20.92;66.14;100383.00;4988264;28;104308;-60
2021/06/13 08:15:21;;;;;;;2.78;2.58;;;;;;;20.91;66.20;100390.47;4989923;28;102209;-61
2021/06/13 08:17:48;;;;;;;3.78;3.00;;;;;;;20.91;66.32;100396.00;4989604;28;102509;-60
2021/06/13 08:20:15;;;;;;;4.47;2.60;;;;;;;20.93;66.10;100395.66;4988058;28;102493;-59
2021/06/13 08:22:42;;;;;;;3.03;2.83;;;;;;;20.93;66.25;100390.13;4976642;28;103915;-60
2021/06/13 08:25:10;;;;;;;3.40;3.10;;;;;;;20.93;66.38;100384.59;4980617;28;102170;-59
2021/06/13 08:27:37;;;;;;;3.00;2.80;;;;;;;20.93;66.22;100379.06;4989513;28;102335;-59
2021/06/13 08:30:06;;;;;;;2.80;2.60;;;;;;;20.94;66.20;100384.22;4990966;28;102831;-60
2021/06/13 08:32:34;;;;;;;3.45;3.15;;;;;;;20.95;66.39;100387.81;4986352;28;104097;-56
2021/06/13 08:35:01;;;;;;;3.38;3.08;;;;;;;21.03;66.00;100387.69;4980830;28;102487;-58
2021/06/13 08:37:27;;;;;;;5.20;3.50;;;;;;;21.10;65.62;100373.25;4987806;28;104968;-58
2021/06/13 08:39:54;;;;;;;13.48;3.67;;;;;;;21.15;65.68;100380.50;4984311;28;102714;-58
2021/06/13 08:42:21;;;;;;;8.80;2.75;;;;;;;21.17;65.31;100379.00;4982938;28;103983;-58
2021/06/13 08:44:48;;;;;;;5.57;3.20;;;;;;;21.20;64.54;100389.34;4975360;28;102419;-58
2021/06/13 08:47:17;;;;;;;3.92;2.65;;;;;;;21.19;64.36;100382.22;4986383;28;102751;-57
2021/06/13 08:49:46;;;;;;;12.10;2.80;;;;;;;21.21;64.22;100379.91;4986259;28;102588;-58
2021/06/13 08:52:13;;;;;;;5.68;2.35;;;;;;;21.20;63.82;100378.28;4986585;28;104058;-58
2021/06/13 08:54:40;;;;;;;6.45;2.25;;;;;;;21.22;63.41;100373.19;4985199;28;102586;-58
2021/06/13 08:57:07;;;;;;;6.38;2.70;;;;;;;21.23;63.52;100371.25;4979511;28;102460;-58
2021/06/13 08:59:36;;;;;;;3.60;2.42;;;;;;;21.23;63.53;100374.81;4989729;28;102227;-58
2021/06/13 09:02:05;;;;;;;4.83;2.23;;;;;;;21.26;63.70;100382.41;4983952;28;104015;-58
2021/06/13 09:04:31;;;;;;;;;;;;;;;21.27;63.16;100367.41;4988262;28;102203;-58
2021/06/13 09:06:59;;;;;;;9.95;2.55;;;;;;;21.28;62.99;100363.50;4983602;28;102510;-58
2021/06/13 09:09:29;;;;;;;2.55;2.10;;;;;;;21.27;63.35;100353.56;4984734;28;102479;-58
2021/06/13 09:12:00;;;;;;;8.48;2.67;;;;;;;21.30;62.64;100355.63;4986869;28;103816;-58
2021/06/13 09:14:27;;;;;;;5.72;2.42;;;;;;;21.34;62.91;100351.03;4987816;28;102230;-60
2021/06/13 09:16:55;;;;;;;3.58;2.33;;;;;;;21.34;62.98;100356.56;4987406;28;102705;-63
2021/06/13 09:19:21;;;;;;;15.07;4.20;;;;;;;21.38;63.02;100351.13;4992733;28;103109;-68
2021/06/13 09:21:49;;;;;;;27.05;4.55;;;;;;;21.42;63.10;100346.53;4986915;28;103989;-64
2021/06/13 09:24:19;;;;;;;16.25;2.92;;;;;;;21.42;62.61;100341.00;4995189;28;102361;-64
2021/06/13 09:26:46;;;;;;;9.35;2.40;;;;;;;21.43;62.49;100336.25;4980060;28;102308;-64
2021/06/13 09:29:13;;;;;;;13.45;3.10;;;;;;;21.44;62.48;100343.38;4981465;28;102589;-64
2021/06/13 09:31:43;;;;;;;14.32;2.20;;;;;;;21.46;62.30;100341.88;5007361;28;103981;-64
2021/06/13 09:34:15;;;;;;;5.72;2.20;;;;;;;21.49;62.49;100340.34;5025020;28;101676;-64
2021/06/13 09:36:43;;;;;;;4.68;2.05;;;;;;;21.49;62.33;100334.81;4991477;28;103612;-65
2021/06/13 09:39:13;;;;;;;12.85;2.50;;;;;;;21.51;62.54;100343.59;4986708;28;102693;-61
2021/06/13 09:41:44;;;;;;;11.27;2.53;;;;;;;21.55;62.79;100338.94;4984782;28;103830;-68
2021/06/13 09:44:16;;;;;;;6.13;2.53;;;;;;;21.61;62.61;100326.47;4980080;28;102865;-60
2021/06/13 09:46:44;;;;;;;17.33;3.05;;;;;;;21.62;62.73;100322.53;4985853;28;102115;-60
2021/06/13 09:49:13;;;;;;;15.80;3.20;;;;;;;21.60;62.35;100319.28;4989044;28;102429;-61
2021/06/13 09:51:43;;;;;;;11.73;3.30;;;;;;;21.58;62.50;100327.97;4982423;28;103718;-60
2021/06/13 09:54:16;;;;;;;18.10;3.20;;;;;;;21.62;62.47;100313.41;4990157;28;103491;-61
2021/06/13 09:56:44;;;;;;;10.70;2.75;;;;;;;21.60;62.24;100305.44;4988034;28;102805;-61
2021/06/13 09:59:12;;;;;;;7.67;3.00;;;;;;;21.59;62.45;100318.50;4990783;28;102171;-61
2021/06/13 10:01:41;;;;;;;19.05;3.50;;;;;;;21.59;62.13;100328.75;4976778;28;103871;-61
2021/06/13 10:04:23;;;;;;;13.38;5.53;;;;;;;21.58;62.18;100316.09;4985788;28;102281;-60
2021/06/13 10:06:52;;;;;;;10.23;4.60;;;;;;;21.61;61.56;100315.38;4981894;28;102155;-60
2021/06/13 10:09:21;;;;;;;11.95;3.70;;;;;;;21.58;61.59;100305.81;4987751;28;102710;-61
2021/06/13 10:11:51;;;;;;;11.07;3.40;;;;;;;21.57;61.81;100303.41;4985984;28;103682;-61
2021/06/13 10:14:18;;;;;;;9.05;3.40;;;;;;;21.60;61.77;100297.13;4983965;28;102171;-61
2021/06/13 10:16:47;;;;;;;6.80;3.47;;;;;;;21.61;61.74;100298.75;4985147;28;102439;-61
2021/06/13 10:19:16;;;;;;;8.38;3.10;;;;;;;21.61;61.81;100298.75;4990291;28;102253;-61
2021/06/13 10:21:47;;;;;;;38.30;3.77;;;;;;;21.61;61.78;100301.53;4975542;28;103895;-60
2021/06/13 10:24:16;;;;;;;8.45;3.47;;;;;;;21.63;61.70;100301.97;4978664;28;102215;-59
2021/06/13 10:26:45;;;;;;;12.50;3.00;;;;;;;21.64;62.04;100283.38;4982622;28;102511;-60
2021/06/13 10:29:14;;;;;;;41.40;28.27;;;;;;;21.64;61.93;100298.06;4984019;28;102830;-61
2021/06/13 10:31:43;;;;;;;34.90;19.13;;;;;;;21.64;62.06;100286.16;4985740;28;104138;-60
2021/06/13 10:34:09;;;;;;;47.25;27.83;;;;;;;21.65;62.08;100287.78;4985678;28;102653;-60
2021/06/13 10:36:40;;;;;;;33.10;17.50;;;;;;;21.64;62.03;100284.22;4987713;28;102085;-60
2021/06/13 10:39:08;;;;;;;21.00;11.30;;;;;;;21.66;62.19;100295.72;4987759;28;102282;-61
2021/06/13 10:41:36;;;;;;;21.88;10.25;;;;;;;21.65;62.27;100276.69;4980537;28;103804;-60
2021/06/13 10:44:04;;;;;;;16.80;8.48;;;;;;;21.65;62.40;100283.03;4980306;28;102267;-60
2021/06/13 10:46:36;;;;;;;14.88;6.53;;;;;;;21.67;62.86;100286.25;4986074;28;102137;-60
2021/06/13 10:49:04;;;;;;;11.32;6.38;;;;;;;21.70;63.05;100274.47;4986596;28;102426;-61
2021/06/13 10:51:40;;;;;;;15.20;6.05;;;;;;;21.71;62.96;100278.84;4980509;28;104081;-61
2021/06/13 10:54:27;;;;;;;16.60;6.88;;;;;;;21.69;63.22;100283.94;4986654;28;103028;-60
2021/06/13 10:57:13;;;;;;;13.30;5.55;;;;;;;21.71;63.29;100276.09;4978820;28;102700;-60
2021/06/13 10:59:42;;;;;;;11.95;5.47;;;;;;;21.74;63.50;100275.34;4974819;28;102441;-60
2021/06/13 11:02:12;;;;;;;19.65;11.93;;;;;;;21.74;63.85;100261.50;4983371;28;103966;-60
2021/06/13 11:04:45;;;;;;;23.15;7.97;;;;;;;21.75;63.69;100271.44;4982174;28;102689;-61
2021/06/13 11:07:53;;;;;;;13.05;4.85;;;;;;;21.75;64.05;100276.97;4979865;28;103602;-61
2021/06/13 11:10:20;;;;;;;12.50;4.03;;;;;;;21.77;64.21;100277.41;4974637;28;102468;-60
2021/06/13 11:12:49;;;;;;;7.45;3.83;;;;;;;21.78;64.54;100270.72;4984795;28;103923;-61
2021/06/13 11:15:50;;;;;;;7.15;3.95;;;;;;;21.79;64.56;100274.28;4987033;28;102339;-60
2021/06/13 11:18:21;;;;;;;7.03;3.70;;;;;;;21.79;64.48;100266.78;4979862;28;103312;-60
2021/06/13 11:20:52;;;;;;;4.43;3.70;;;;;;;21.79;64.64;100266.78;4983923;28;102348;-61
2021/06/13 11:23:43;;;;;;;11.68;3.33;;;;;;;21.78;64.68;100275.44;4979961;28;104739;-61
2021/06/13 11:26:37;;;;;;;5.68;3.20;;;;;;;21.80;64.76;100262.84;4979242;28;102873;-61